createdAt,value
2022-08-21T00:00:42.324Z,2.46
2022-08-21T00:05:41.405Z,1.89
2022-08-21T00:10:41.488Z,1.04
2022-08-21T00:15:41.439Z,1.32
2022-08-21T00:20:42.512Z,1.70
2022-08-21T00:25:42.462Z,2.63
2022-08-21T00:30:42.441Z,1.50
2022-08-21T00:35:42.441Z,2.26
2022-08-21T00:40:42.464Z,3.10
2022-08-21T00:45:42.461Z,1.69
2022-08-21T00:50:42.528Z,2.25
2022-08-21T00:55:42.453Z,1.31
2022-08-21T01:00:42.527Z,2.34
2022-08-21T01:05:42.489Z,2.90
2022-08-21T01:10:42.497Z,1.12
2022-08-21T01:15:42.477Z,1.22
2022-08-21T01:20:42.635Z,2.34
2022-08-21T01:25:43.102Z,1.78
2022-08-21T01:30:43.855Z,1.97
2022-08-21T01:35:43.584Z,1.88
2022-08-21T01:40:43.493Z,1.69
2022-08-21T01:45:43.553Z,1.41
2022-08-21T01:50:43.653Z,1.41
2022-08-21T01:55:43.508Z,1.03
2022-08-21T02:00:44.087Z,2.53
2022-08-21T02:05:44.497Z,1.50
2022-08-21T02:10:49.078Z,2.06
2022-08-21T02:15:46.546Z,2.61
2022-08-21T02:20:46.560Z,1.49
2022-08-21T02:25:46.577Z,1.58
2022-08-21T02:30:46.540Z,1.67
2022-08-21T02:35:46.543Z,2.88
2022-08-21T02:40:47.938Z,3.24
2022-08-21T02:45:48.560Z,3.14
2022-08-21T02:50:48.631Z,1.39
2022-08-21T02:55:48.561Z,1.76
2022-08-21T03:00:48.563Z,1.48
2022-08-21T03:05:48.568Z,2.31
2022-08-21T03:10:48.556Z,1.94
2022-08-21T03:15:48.567Z,2.04
2022-08-21T03:20:49.653Z,2.49
2022-08-21T03:25:49.991Z,1.57
2022-08-21T03:30:49.573Z,2.49
2022-08-21T03:35:49.663Z,1.38
2022-08-21T03:40:49.587Z,2.03
2022-08-21T03:45:49.652Z,1.57
2022-08-21T03:50:51.645Z,2.30
2022-08-21T03:55:53.063Z,1.57
2022-08-21T04:00:52.603Z,3.04
2022-08-21T04:05:52.603Z,1.66
2022-08-21T04:10:52.617Z,2.02
2022-08-21T04:15:52.629Z,2.76
2022-08-21T04:20:52.609Z,3.49
2022-08-21T04:25:52.718Z,2.48
2022-08-21T04:30:52.707Z,2.11
2022-08-21T04:35:52.651Z,2.02
2022-08-21T04:40:52.842Z,2.94
2022-08-21T04:45:52.640Z,2.30
2022-08-21T04:50:52.647Z,2.76
2022-08-21T04:55:53.507Z,2.58
2022-08-21T05:00:53.649Z,1.75
2022-08-21T05:05:53.635Z,2.12
2022-08-21T05:10:58.237Z,2.96
2022-08-21T05:15:56.274Z,2.77
2022-08-21T05:20:57.538Z,2.59
2022-08-21T05:25:58.033Z,2.97
2022-08-21T05:30:58.653Z,4.74
2022-08-21T05:35:58.954Z,4.93
2022-08-21T05:40:58.766Z,3.83
2022-08-21T05:45:58.675Z,2.53
2022-08-21T05:50:58.733Z,1.97
2022-08-21T05:55:58.703Z,3.95
2022-08-21T06:00:59.557Z,3.21
2022-08-21T06:05:59.697Z,3.12
2022-08-21T06:10:59.697Z,2.84
2022-08-21T06:15:59.737Z,2.47
2022-08-21T06:20:59.725Z,2.85
2022-08-21T06:26:00.694Z,3.05
2022-08-21T06:31:00.796Z,1.91
2022-08-21T06:36:01.244Z,2.68
2022-08-21T06:41:00.980Z,2.49
2022-08-21T06:46:02.710Z,1.93
2022-08-21T06:51:03.148Z,1.28
2022-08-21T06:56:02.735Z,2.78
2022-08-21T07:01:02.863Z,1.59
2022-08-21T07:06:02.783Z,1.70
2022-08-21T07:11:02.741Z,0.90
2022-08-21T07:16:04.264Z,0.50
2022-08-21T07:21:04.787Z,4.40
2022-08-21T07:26:04.770Z,0.30
2022-08-21T07:31:04.841Z,1.70
2022-08-21T07:36:05.048Z,0.90
2022-08-21T07:41:04.756Z,0.80
2022-08-21T07:46:04.811Z,0.70
2022-08-21T07:51:04.773Z,1.20
2022-08-21T07:56:05.187Z,1.00
2022-08-21T08:01:04.992Z,0.30
2022-08-21T08:06:05.259Z,0.10
2022-08-21T08:11:05.109Z,0.70
2022-08-21T08:16:04.789Z,1.10
2022-08-21T08:21:07.792Z,0.70
2022-08-21T08:26:07.933Z,0.80
2022-08-21T08:31:07.879Z,0.70
2022-08-21T08:36:08.311Z,0.30
2022-08-21T08:41:08.815Z,1.10
2022-08-21T08:46:08.877Z,1.80
2022-08-21T08:51:09.321Z,0.90
2022-08-21T08:56:08.933Z,1.00
2022-08-21T09:01:08.956Z,0.50
2022-08-21T09:06:08.948Z,0.50
2022-08-21T09:11:12.047Z,0.70
2022-08-21T09:16:11.846Z,1.40
2022-08-21T09:21:11.880Z,0.60
2022-08-21T09:26:12.532Z,0.20
2022-08-21T09:31:13.053Z,0.20
2022-08-21T09:36:12.897Z,1.90
2022-08-21T09:41:12.949Z,0.20
2022-08-21T09:46:13.006Z,1.20
2022-08-21T09:51:12.880Z,1.60
2022-08-21T09:56:31.194Z,0.70
2022-08-21T10:01:31.086Z,0.50
2022-08-21T10:06:31.123Z,0.60
2022-08-21T10:11:30.896Z,0.30
2022-08-21T10:16:30.952Z,0.40
2022-08-21T10:21:30.907Z,0.50
2022-08-21T10:26:31.140Z,0.40
2022-08-21T10:31:31.003Z,1.10
2022-08-21T10:36:31.614Z,0.40
2022-08-21T10:41:32.033Z,0.10
2022-08-21T10:46:31.947Z,0.40
2022-08-21T10:51:31.993Z,0.10
2022-08-21T10:56:32.119Z,0.20
2022-08-21T11:01:33.097Z,1.00
2022-08-21T11:06:33.877Z,0.80
2022-08-21T11:11:35.872Z,0.40
2022-08-21T11:16:35.960Z,0.80
2022-08-21T11:21:35.969Z,0.50
2022-08-21T11:26:36.084Z,0.50
2022-08-21T11:31:36.120Z,0.90
2022-08-21T11:36:35.976Z,0.20
2022-08-21T11:41:35.995Z,0.20
2022-08-21T11:46:35.993Z,0.20
2022-08-21T11:51:36.016Z,0.40
2022-08-21T11:56:36.026Z,1.40
2022-08-21T12:01:36.252Z,0.90
2022-08-21T12:06:36.262Z,0.90
2022-08-21T12:11:36.072Z,0.50
2022-08-21T12:16:37.082Z,0.70
2022-08-21T12:21:37.122Z,0.10
2022-08-21T12:26:40.123Z,0.80
2022-08-21T12:31:40.132Z,0.20
2022-08-21T12:36:40.095Z,0.30
2022-08-21T12:41:40.147Z,0.30
2022-08-21T12:46:40.093Z,0.80
2022-08-21T12:51:40.096Z,0.60
2022-08-21T12:56:40.436Z,0.10
2022-08-21T13:01:41.976Z,0.30
2022-08-21T13:06:42.523Z,0.20
2022-08-21T13:11:42.404Z,0.30
2022-08-21T13:16:43.161Z,1.30
2022-08-21T13:21:47.081Z,0.80
2022-08-21T13:26:47.135Z,0.40
2022-08-21T13:31:47.230Z,0.60
2022-08-21T13:36:47.872Z,0.30
2022-08-21T13:41:48.155Z,0.10
2022-08-21T13:46:48.420Z,0.90
2022-08-21T13:51:48.241Z,0.20
2022-08-21T13:56:48.276Z,0.10
2022-08-21T14:01:48.316Z,0.10
2022-08-21T14:06:49.029Z,0.30
2022-08-21T14:11:49.440Z,0.30
2022-08-21T14:16:49.531Z,0.60
2022-08-21T14:21:49.142Z,0.10
2022-08-21T14:26:49.237Z,0.40
2022-08-21T14:31:49.947Z,1.60
2022-08-21T14:36:51.371Z,0.40
2022-08-21T14:41:51.247Z,0.30
2022-08-21T14:46:56.097Z,0.40
2022-08-21T14:51:55.216Z,0.40
2022-08-21T14:56:55.771Z,0.70
2022-08-21T15:01:56.871Z,0.70
2022-08-21T15:06:57.271Z,0.70
2022-08-21T15:11:57.524Z,2.00
2022-08-21T15:16:57.258Z,0.50
2022-08-21T15:21:57.272Z,0.70
2022-08-21T15:26:57.360Z,0.70
2022-08-21T15:31:57.301Z,0.90
2022-08-21T15:36:57.461Z,0.90
2022-08-21T15:41:57.209Z,1.20
2022-08-21T15:46:57.227Z,0.30
2022-08-21T15:51:58.294Z,0.10
2022-08-21T15:56:58.218Z,0.10
2022-08-21T16:01:58.371Z,0.30
2022-08-21T16:07:04.340Z,1.00
2022-08-21T16:12:00.509Z,0.30
2022-08-21T16:17:00.198Z,0.30
2022-08-21T16:22:00.246Z,0.20
2022-08-21T16:27:00.238Z,1.20
2022-08-21T16:32:02.267Z,0.10
2022-08-21T16:37:02.230Z,0.10
2022-08-21T16:42:02.277Z,0.10
2022-08-21T16:47:02.352Z,0.40
2022-08-21T16:52:02.263Z,0.50
2022-08-21T16:57:02.260Z,0.90
2022-08-21T17:02:03.068Z,0.90
2022-08-21T17:07:03.264Z,0.70
2022-08-21T17:12:03.263Z,0.70
2022-08-21T17:17:03.372Z,0.70
2022-08-21T17:22:03.272Z,0.20
2022-08-21T17:27:03.307Z,0.70
2022-08-21T17:32:03.386Z,0.10
2022-08-21T17:37:03.383Z,0.20
2022-08-21T17:42:03.303Z,0.60
2022-08-21T17:47:03.316Z,0.50
2022-08-21T17:52:03.308Z,0.50
2022-08-21T17:57:03.375Z,0.60
2022-08-21T18:02:03.626Z,0.60
2022-08-21T18:07:03.529Z,0.40
2022-08-21T18:12:05.140Z,0.30
2022-08-21T18:17:05.367Z,0.50
2022-08-21T18:22:07.316Z,0.30
2022-08-21T18:27:09.588Z,0.40
2022-08-21T18:32:31.266Z,0.30
2022-08-21T18:37:11.460Z,0.80
2022-08-21T18:42:11.333Z,0.50
2022-08-21T18:47:11.474Z,1.50
2022-08-21T18:52:17.809Z,0.80
2022-08-21T18:57:14.371Z,0.10
2022-08-21T19:02:15.887Z,0.10
2022-08-21T19:07:15.737Z,0.70
2022-08-21T19:12:15.379Z,1.20
2022-08-21T19:17:15.449Z,0.70
2022-08-21T19:22:15.440Z,0.20
2022-08-21T19:27:17.753Z,0.30
2022-08-21T19:32:17.547Z,0.40
2022-08-21T19:37:20.022Z,0.50
2022-08-21T19:42:21.583Z,1.00
2022-08-21T19:47:21.449Z,0.40
2022-08-21T19:52:23.433Z,0.30
2022-08-21T19:57:24.396Z,0.10
2022-08-21T20:02:24.629Z,0.10
2022-08-21T20:07:25.156Z,0.80
2022-08-21T20:12:26.547Z,0.90
2022-08-21T20:17:26.518Z,1.89
2022-08-21T20:22:26.667Z,1.69
2022-08-21T20:27:26.485Z,1.10
2022-08-21T20:32:27.483Z,0.50
2022-08-21T20:42:31.471Z,0.10
2022-08-21T20:47:32.430Z,0.20
2022-08-21T20:52:32.439Z,1.00
2022-08-21T20:57:32.495Z,0.70
2022-08-21T21:02:33.491Z,0.40
2022-08-21T21:07:33.545Z,0.20
2022-08-21T21:12:33.534Z,0.30
2022-08-21T21:17:33.480Z,0.40
2022-08-21T21:22:33.842Z,0.10
2022-08-21T21:27:34.858Z,0.30
2022-08-21T21:32:35.624Z,0.50
2022-08-21T21:37:37.493Z,0.40
2022-08-21T21:42:37.537Z,0.80
2022-08-21T21:47:37.830Z,0.40
2022-08-21T21:52:38.623Z,0.50
2022-08-21T21:57:38.588Z,0.50
2022-08-21T22:02:38.554Z,0.30
2022-08-21T22:07:40.022Z,1.19
2022-08-21T22:17:42.524Z,0.40
2022-08-21T22:22:43.890Z,0.99
2022-08-21T22:27:45.740Z,0.50
2022-08-21T22:32:46.055Z,0.50
2022-08-21T22:37:47.657Z,0.70
2022-08-21T22:42:47.624Z,0.10
2022-08-21T22:47:48.325Z,1.69
2022-08-21T22:52:48.913Z,0.50
2022-08-21T22:57:50.009Z,0.80
2022-08-21T23:07:56.596Z,0.50
2022-08-21T23:12:57.697Z,0.40
2022-08-21T23:18:00.537Z,0.70
2022-08-21T23:23:00.589Z,0.99
2022-08-21T23:28:00.803Z,0.99
2022-08-21T23:33:02.838Z,0.50
2022-08-21T23:38:02.561Z,0.40
2022-08-21T23:43:04.621Z,0.60
2022-08-21T23:48:04.659Z,0.59
2022-08-21T23:53:08.904Z,1.09
2022-08-21T23:58:06.671Z,0.69
